Time;durP1;ratioP1;P1;durP2;ratioP2;P2;SDS_P1;SDS_P2;PMS_P1;PMS_P2;Temp;Humidity;BMP_temperature;BMP_pressure;BME280_temperature;BME280_humidity;BME280_pressure;Samples;Min_cycle;Max_cycle;Signal;HPM_P1;HPM_P2
2023/04/07 00:01:48;;;;;;;7.90;6.20;;;;;;;8.42;48.56;101002.41;5072211;28;20127;-82
2023/04/07 00:04:17;;;;;;;8.52;5.72;;;;;;;8.41;48.53;100992.47;5072315;28;20493;-82
2023/04/07 00:06:45;;;;;;;10.63;6.78;;;;;;;8.42;48.01;100997.81;5072288;28;20121;-82
2023/04/07 00:09:14;;;;;;;9.93;7.07;;;;;;;8.43;48.00;100988.63;5069779;28;20059;-83
2023/04/07 00:11:42;;;;;;;8.98;6.43;;;;;;;8.43;48.44;100991.34;5082288;28;20131;-81
2023/04/07 00:14:10;;;;;;;9.25;6.50;;;;;;;8.43;48.13;100994.06;5070900;28;20294;-82
2023/04/07 00:16:38;;;;;;;9.15;6.55;;;;;;;8.44;48.44;100990.38;5074380;28;20147;-81
2023/04/07 00:19:08;;;;;;;8.70;6.47;;;;;;;8.45;48.37;100985.78;5072584;28;20055;-81
2023/04/07 00:21:37;;;;;;;9.90;7.05;;;;;;;8.43;48.65;100985.88;5093811;28;20044;-81
2023/04/07 00:24:06;;;;;;;10.13;7.03;;;;;;;8.45;48.78;100988.50;5071154;28;20040;-81
2023/04/07 00:26:34;;;;;;;11.00;7.20;;;;;;;8.45;48.23;100989.38;5072141;28;20070;-80
2023/04/07 00:29:02;;;;;;;9.23;6.85;;;;;;;8.46;48.22;100987.53;5074044;28;20558;-81
2023/04/07 00:31:30;;;;;;;9.90;6.95;;;;;;;8.47;48.62;100989.25;5065174;28;20044;-82
2023/04/07 00:33:58;;;;;;;9.98;7.07;;;;;;;8.46;48.70;100990.25;5071905;28;20166;-81
2023/04/07 00:36:29;;;;;;;9.93;7.45;;;;;;;8.49;48.73;100990.03;5092909;28;20533;-81
2023/04/07 00:38:56;;;;;;;9.68;7.25;;;;;;;8.47;48.64;100981.09;5072438;28;20056;-81
2023/04/07 00:41:25;;;;;;;9.15;7.28;;;;;;;8.48;48.77;100997.34;5069502;28;20082;-82
2023/04/07 00:43:52;;;;;;;10.63;7.45;;;;;;;8.49;48.56;100990.03;5072478;28;20055;-82
2023/04/07 00:46:22;;;;;;;10.32;7.15;;;;;;;8.50;49.03;100989.03;5089053;28;20105;-83
2023/04/07 00:48:50;;;;;;;10.63;7.28;;;;;;;8.49;48.72;100992.75;5066682;28;20051;-83
2023/04/07 00:51:21;;;;;;;9.40;7.18;;;;;;;8.51;48.86;100985.31;5063896;28;20897;-84
2023/04/07 00:53:50;;;;;;;10.45;7.32;;;;;;;8.51;48.82;100985.31;5073377;28;20044;-83
2023/04/07 00:56:18;;;;;;;9.80;6.75;;;;;;;8.50;48.77;100980.84;5072083;28;20101;-82
2023/04/07 00:58:47;;;;;;;8.55;6.55;;;;;;;8.50;49.03;100976.28;5072706;28;20431;-83
2023/04/07 01:01:19;;;;;;;11.00;7.60;;;;;;;8.51;49.30;100979.84;5082197;28;20089;-83
2023/04/07 01:03:53;;;;;;;11.38;7.25;;;;;;;8.51;50.26;100977.97;5073629;28;20445;-83
2023/04/07 01:06:26;;;;;;;9.77;6.90;;;;;;;8.52;49.91;100967.94;5069500;28;20091;-83
2023/04/07 01:09:02;;;;;;;9.13;6.75;;;;;;;8.51;50.32;100967.06;5093752;28;20046;-83
2023/04/07 01:11:37;;;;;;;9.63;6.53;;;;;;;8.53;49.35;100977.88;5074628;28;20044;-82
2023/04/07 01:14:06;;;;;;;9.02;7.05;;;;;;;8.53;48.94;100969.69;5068722;28;20510;-83
2023/04/07 01:16:42;;;;;;;;;;;;;;;8.26;50.46;100973.53;5064679;28;20121;-83
2023/04/07 01:19:18;;;;;;;10.02;6.65;;;;;;;8.49;50.69;100963.63;5069445;28;20297;-83
2023/04/07 01:21:56;;;;;;;10.40;7.22;;;;;;;8.50;49.10;100964.50;5095255;28;20527;-81
2023/04/07 01:24:45;;;;;;;11.40;8.25;;;;;;;8.52;50.68;100976.13;5067474;28;20040;-81
2023/04/07 01:27:21;;;;;;;9.73;7.50;;;;;;;8.50;49.79;100965.38;5079416;28;20090;-81
2023/04/07 01:29:53;;;;;;;10.60;7.30;;;;;;;8.49;49.61;100963.63;5067338;28;20060;-81
2023/04/07 01:32:23;;;;;;;9.13;7.10;;;;;;;8.46;48.91;100969.31;5066729;28;20048;-82
2023/04/07 01:34:53;;;;;;;10.95;7.72;;;;;;;8.46;49.40;100963.84;5091646;28;20067;-81
2023/04/07 01:37:22;;;;;;;9.77;7.90;;;;;;;8.47;49.52;100970.16;5070053;28;20047;-83
2023/04/07 01:39:52;;;;;;;11.00;8.18;;;;;;;8.45;49.31;100967.56;5068327;28;20046;-82
2023/04/07 01:42:22;;;;;;;10.65;8.32;;;;;;;8.47;49.31;100971.03;5071165;28;20063;-84
2023/04/07 01:44:53;;;;;;;9.70;7.45;;;;;;;8.47;49.87;100967.44;5066038;28;20048;-82
2023/04/07 01:47:21;;;;;;;11.30;8.32;;;;;;;8.46;49.39;100968.44;5088983;28;20495;-81
2023/04/07 01:49:50;;;;;;;9.95;7.65;;;;;;;8.47;49.41;100972.91;5088373;28;20043;-84
2023/04/07 01:52:19;;;;;;;9.57;7.43;;;;;;;8.46;49.95;100969.31;5088184;28;20372;-81
2023/04/07 01:54:48;;;;;;;10.23;7.45;;;;;;;8.48;49.58;100961.88;5107610;28;20039;-81
2023/04/07 01:57:16;;;;;;;10.20;7.50;;;;;;;8.49;49.60;100973.66;5083469;28;20116;-81
2023/04/07 01:59:45;;;;;;;10.45;7.88;;;;;;;8.49;49.51;100963.63;5072497;28;20040;-82
2023/04/07 02:02:15;;;;;;;10.60;7.85;;;;;;;8.51;50.20;100960.75;5069507;28;20040;-82
2023/04/07 02:04:54;;;;;;;10.30;7.30;;;;;;;8.53;51.19;100970.56;5089147;28;20063;-82
2023/04/07 02:07:34;;;;;;;11.55;7.93;;;;;;;8.54;51.22;100964.13;5070532;23;20090;-78
2023/04/07 02:10:05;;;;;;;9.60;7.40;;;;;;;8.53;49.82;100956.06;5053787;28;20053;-78
2023/04/07 02:12:37;;;;;;;10.90;8.07;;;;;;;8.54;49.90;100957.78;5058855;28;20052;-78
2023/04/07 02:15:13;;;;;;;11.10;7.95;;;;;;;8.55;49.99;100963.13;5063409;28;20569;-79
2023/04/07 02:17:48;;;;;;;11.02;7.88;;;;;;;8.56;50.83;100964.88;5079646;28;20052;-79
2023/04/07 02:20:17;;;;;;;10.55;7.63;;;;;;;8.55;49.90;100963.13;5058140;28;20676;-79
2023/04/07 02:22:46;;;;;;;13.07;8.45;;;;;;;8.57;50.09;100965.75;5080297;28;20120;-80
2023/04/07 02:25:24;;;;;;;11.85;8.27;;;;;;;8.57;51.69;100963.91;5059189;28;20040;-80
2023/04/07 02:27:55;;;;;;;12.35;8.25;;;;;;;8.55;49.67;100965.00;5055597;28;20075;-79
2023/04/07 02:30:25;;;;;;;14.60;8.63;;;;;;;8.56;50.00;100959.44;5073636;28;20068;-80
2023/04/07 02:32:57;;;;;;;14.43;9.23;;;;;;;8.55;50.41;100963.13;5067508;28;20109;-79
2023/04/07 02:35:25;;;;;;;15.60;9.98;;;;;;;8.55;49.92;100962.25;5055248;28;20440;-78
2023/04/07 02:37:53;;;;;;;14.60;9.23;;;;;;;8.55;50.27;100965.00;5055579;28;20523;-78
2023/04/07 02:40:24;;;;;;;15.90;9.35;;;;;;;8.57;50.85;100960.31;5053703;28;20044;-79
2023/04/07 02:42:53;;;;;;;17.02;10.60;;;;;;;8.54;49.96;100963.25;5061316;28;20135;-78
2023/04/07 02:45:23;;;;;;;15.20;9.57;;;;;;;8.54;50.10;100961.41;5065706;28;20185;-79
2023/04/07 02:47:51;;;;;;;15.27;9.85;;;;;;;8.54;50.32;100969.59;5070554;28;20059;-80
2023/04/07 02:50:24;;;;;;;16.67;10.20;;;;;;;8.55;51.38;100968.59;5061479;28;20086;-77
2023/04/07 02:52:52;;;;;;;14.98;9.95;;;;;;;8.54;50.17;100968.72;5058965;28;20040;-79
2023/04/07 02:55:20;;;;;;;17.15;10.55;;;;;;;8.55;50.31;100967.72;5084796;28;20040;-79
2023/04/07 02:57:48;;;;;;;17.40;10.20;;;;;;;8.55;50.49;100973.19;5070414;28;20037;-79
2023/04/07 03:00:28;;;;;;;18.42;10.65;;;;;;;8.53;50.62;100976.03;5054429;28;20036;-79
2023/04/07 03:03:08;;;;;;;16.58;10.35;;;;;;;8.53;50.54;100984.19;5050043;28;20132;-80
2023/04/07 03:05:40;;;;;;;18.92;10.82;;;;;;;8.54;50.69;100980.50;5056095;28;20064;-80
2023/04/07 03:08:10;;;;;;;15.98;9.80;;;;;;;8.53;50.19;100981.47;5072000;28;20040;-79
2023/04/07 03:10:40;;;;;;;16.65;9.90;;;;;;;8.54;50.67;100983.22;5061241;28;20467;-79
2023/04/07 03:13:09;;;;;;;16.17;10.20;;;;;;;8.53;50.56;100981.47;5060397;28;20101;-79
2023/04/07 03:15:37;;;;;;;16.30;9.55;;;;;;;8.53;50.66;100984.19;5055691;28;20076;-79
2023/04/07 03:18:06;;;;;;;17.27;10.98;;;;;;;8.53;50.61;100976.03;5058785;28;20037;-79
2023/04/07 03:20:34;;;;;;;15.45;9.73;;;;;;;8.54;50.65;100980.50;5045304;28;20048;-79
2023/04/07 03:23:09;;;;;;;16.60;10.05;;;;;;;8.53;51.10;100978.75;5063993;28;20045;-80
2023/04/07 03:25:37;;;;;;;15.57;9.20;;;;;;;8.53;50.43;100976.03;5083603;28;20052;-79
2023/04/07 03:28:06;;;;;;;15.55;9.50;;;;;;;8.54;50.72;100983.22;5055744;28;20033;-79
2023/04/07 03:30:37;;;;;;;15.30;9.13;;;;;;;8.54;50.40;100976.88;5057585;28;20063;-79
2023/04/07 03:33:06;;;;;;;13.85;8.65;;;;;;;8.54;50.56;100977.75;5064001;28;20055;-79
2023/04/07 03:35:34;;;;;;;12.68;8.80;;;;;;;8.54;50.77;100983.22;5063848;28;20055;-79
2023/04/07 03:38:02;;;;;;;13.27;8.88;;;;;;;8.54;50.89;100983.22;5066943;28;20119;-78
2023/04/07 03:40:34;;;;;;;13.70;7.85;;;;;;;8.55;50.97;100987.69;5063460;28;20040;-78
2023/04/07 03:43:02;;;;;;;13.20;8.35;;;;;;;8.53;50.87;100981.47;5062463;28;20107;-78
2023/04/07 03:45:30;;;;;;;12.25;7.57;;;;;;;8.54;50.77;100983.22;5062263;28;20044;-78
2023/04/07 03:47:58;;;;;;;12.85;7.90;;;;;;;8.54;50.41;100985.94;5063604;28;20445;-78
2023/04/07 03:50:27;;;;;;;12.15;7.32;;;;;;;8.54;50.32;100982.34;5058012;28;20631;-79
2023/04/07 03:53:08;;;;;;;11.95;7.38;;;;;;;8.53;50.68;100988.78;5061233;28;20064;-79
2023/04/07 03:55:38;;;;;;;11.98;7.20;;;;;;;8.55;50.72;100989.53;5085307;28;20067;-79
2023/04/07 03:58:13;;;;;;;12.27;7.40;;;;;;;8.53;50.56;100989.66;5072744;28;20066;-79
2023/04/07 04:00:44;;;;;;;11.57;7.22;;;;;;;8.53;50.54;100989.66;5060022;28;20044;-80
2023/04/07 04:03:16;;;;;;;12.07;7.30;;;;;;;8.55;51.42;100995.88;5064707;28;20044;-78
2023/04/07 04:06:05;;;;;;;11.07;6.60;;;;;;;8.51;50.36;100997.09;5059613;28;20094;-79
2023/04/07 04:08:33;;;;;;;10.80;6.65;;;;;;;8.52;50.44;100993.38;5066110;28;20044;-79
2023/04/07 04:11:03;;;;;;;10.85;7.05;;;;;;;8.52;50.77;100998.81;5059879;28;20708;-79
2023/04/07 04:13:36;;;;;;;11.18;6.35;;;;;;;8.51;50.83;100999.81;5057121;28;20096;-79
2023/04/07 04:16:06;;;;;;;11.65;6.93;;;;;;;8.51;50.84;100999.81;5057246;28;20074;-79
2023/04/07 04:18:37;;;;;;;10.40;6.50;;;;;;;8.51;50.89;101001.66;5070348;28;20040;-79
2023/04/07 04:21:09;;;;;;;11.85;6.80;;;;;;;8.49;50.70;101009.13;5065352;28;20097;-79
2023/04/07 04:23:40;;;;;;;11.30;6.95;;;;;;;8.50;50.45;101009.00;5057150;28;20041;-79
2023/04/07 04:26:09;;;;;;;9.18;6.22;;;;;;;8.51;50.74;101012.56;5074780;28;20052;-79
2023/04/07 04:28:39;;;;;;;10.07;6.05;;;;;;;8.49;50.94;101015.44;5064411;28;20418;-79
2023/04/07 04:31:08;;;;;;;11.32;6.47;;;;;;;8.49;50.56;101018.19;5071527;28;20529;-78
2023/04/07 04:33:41;;;;;;;8.90;5.75;;;;;;;8.47;50.70;101017.41;5082469;28;20554;-80
2023/04/07 04:36:09;;;;;;;9.05;6.30;;;;;;;8.49;50.91;101007.25;5066421;28;20055;-79
2023/04/07 04:38:39;;;;;;;9.00;5.35;;;;;;;8.49;50.43;101017.31;5061623;28;20041;-79
2023/04/07 04:41:17;;;;;;;8.40;5.57;;;;;;;8.49;51.05;101015.44;5059831;28;20055;-78
2023/04/07 04:43:45;;;;;;;10.02;5.20;;;;;;;8.49;50.56;101020.03;5069561;28;20060;-78
2023/04/07 04:46:18;;;;;;;9.57;5.70;;;;;;;8.49;50.86;101022.75;5071947;28;20079;-79
2023/04/07 04:48:48;;;;;;;9.05;5.20;;;;;;;8.49;50.81;101025.47;5062177;28;20094;-79
2023/04/07 04:51:17;;;;;;;8.88;6.00;;;;;;;8.48;50.94;101015.56;5060233;28;20082;-78
2023/04/07 04:53:49;;;;;;;10.10;5.93;;;;;;;8.47;50.66;101022.00;5052738;28;20037;-79
2023/04/07 04:56:20;;;;;;;9.05;5.45;;;;;;;8.49;50.43;101023.63;5059585;28;20283;-78
2023/04/07 04:58:49;;;;;;;8.55;5.13;;;;;;;8.47;50.29;101019.28;5082250;28;20032;-78
2023/04/07 05:01:26;;;;;;;8.68;5.25;;;;;;;8.47;50.60;101036.50;5058942;28;20056;-78
2023/04/07 05:04:03;;;;;;;8.15;4.63;;;;;;;8.47;50.81;101030.19;5057950;28;20139;-78
2023/04/07 05:06:31;;;;;;;8.05;4.78;;;;;;;8.47;50.23;101033.78;5064747;28;20487;-78
2023/04/07 05:09:05;;;;;;;8.15;4.63;;;;;;;8.47;50.83;101032.91;5060378;28;20086;-78
2023/04/07 05:11:42;;;;;;;7.25;4.13;;;;;;;8.48;50.78;101037.38;5065314;28;20510;-79
2023/04/07 05:14:10;;;;;;;7.18;4.15;;;;;;;8.46;50.22;101037.50;5075092;28;20127;-78
2023/04/07 05:16:43;;;;;;;6.95;4.50;;;;;;;8.44;50.39;101042.19;5075813;28;20047;-78
2023/04/07 05:19:16;;;;;;;6.38;3.78;;;;;;;8.45;50.88;101043.06;5057531;28;20044;-79
2023/04/07 05:21:45;;;;;;;7.20;4.10;;;;;;;8.45;50.62;101045.78;5059601;28;20135;-78
2023/04/07 05:24:14;;;;;;;7.50;4.20;;;;;;;8.45;50.24;101043.94;5065581;28;20090;-78
2023/04/07 05:26:45;;;;;;;7.10;3.75;;;;;;;8.46;50.62;101044.81;5076618;28;20041;-78
2023/04/07 05:29:13;;;;;;;7.13;4.13;;;;;;;8.44;50.24;101050.38;5056537;28;20048;-78
2023/04/07 05:31:41;;;;;;;7.10;3.85;;;;;;;8.45;50.46;101056.69;5059900;28;20047;-79
2023/04/07 05:34:12;;;;;;;8.90;4.10;;;;;;;8.44;50.25;101044.03;5059355;28;20059;-79
2023/04/07 05:36:46;;;;;;;7.05;3.88;;;;;;;8.43;50.75;101048.63;5065136;28;20084;-79
2023/04/07 05:39:15;;;;;;;6.10;3.72;;;;;;;8.44;50.43;101049.50;5060158;28;20056;-78
2023/04/07 05:41:45;;;;;;;8.30;4.32;;;;;;;8.44;50.77;101053.09;5066072;28;20040;-78
2023/04/07 05:44:14;;;;;;;6.72;3.75;;;;;;;8.43;50.83;101051.34;5058444;28;20423;-78
2023/04/07 05:46:42;;;;;;;7.18;4.45;;;;;;;8.44;50.18;101058.53;5056445;28;20072;-78
2023/04/07 05:49:11;;;;;;;8.68;4.80;;;;;;;8.42;50.56;101060.53;5061577;28;20131;-78
2023/04/07 05:51:52;;;;;;;6.60;3.63;;;;;;;8.43;50.22;101064.13;5051034;28;20108;-79
2023/04/07 05:54:20;;;;;;;7.15;3.90;;;;;;;8.42;50.39;101074.19;5068397;28;20068;-78
2023/04/07 05:56:50;;;;;;;7.55;3.72;;;;;;;8.43;50.64;101077.75;5071509;28;20094;-78
2023/04/07 05:59:18;;;;;;;8.23;4.43;;;;;;;8.41;50.25;101077.88;5060985;28;20109;-78
2023/04/07 06:01:46;;;;;;;6.95;3.50;;;;;;;8.42;50.25;101079.63;5067485;28;20047;-78
2023/04/07 06:04:15;;;;;;;6.88;3.75;;;;;;;8.42;50.27;101087.81;5065411;28;20088;-79
2023/04/07 06:06:44;;;;;;;7.35;4.00;;;;;;;8.42;50.50;101092.41;5080253;28;20558;-78
2023/04/07 06:09:13;;;;;;;6.90;3.83;;;;;;;8.41;50.43;101088.81;5060823;28;20051;-79
2023/04/07 06:11:41;;;;;;;8.73;3.80;;;;;;;8.42;50.29;101087.81;5063552;28;20075;-79
2023/04/07 06:14:11;;;;;;;7.07;3.72;;;;;;;8.42;50.47;101086.94;5068917;28;20488;-79
2023/04/07 06:16:39;;;;;;;8.38;4.22;;;;;;;8.41;50.47;101094.25;5055332;28;20036;-78
2023/04/07 06:19:07;;;;;;;7.10;3.72;;;;;;;8.41;50.25;101096.09;5071685;28;20047;-79
2023/04/07 06:21:35;;;;;;;7.45;4.20;;;;;;;8.41;50.36;101093.38;5073774;28;20044;-78
2023/04/07 06:24:15;;;;;;;6.93;3.95;;;;;;;8.42;51.70;101103.31;5067099;28;20049;-79
2023/04/07 06:26:46;;;;;;;6.75;3.67;;;;;;;8.39;50.66;101101.66;5062399;28;20048;-78
2023/04/07 06:29:16;;;;;;;7.30;4.22;;;;;;;8.42;50.42;101103.31;5071391;28;20051;-78
2023/04/07 06:31:44;;;;;;;7.15;3.90;;;;;;;8.41;50.34;101098.84;5054314;28;20090;-79
2023/04/07 06:34:12;;;;;;;7.47;4.20;;;;;;;8.40;51.09;101105.28;5079643;28;20040;-78
2023/04/07 06:36:40;;;;;;;6.88;4.00;;;;;;;8.40;50.91;101110.72;5076901;28;20044;-78
2023/04/07 06:39:08;;;;;;;8.00;4.43;;;;;;;8.40;50.67;101106.16;5062852;28;20090;-78
2023/04/07 06:41:37;;;;;;;6.43;3.90;;;;;;;8.41;50.94;101107.03;5062434;28;20033;-79
2023/04/07 06:44:05;;;;;;;6.80;4.10;;;;;;;8.40;51.09;101108.00;5070665;28;20048;-79
2023/04/07 06:46:37;;;;;;;7.63;4.10;;;;;;;8.41;50.73;101110.63;5063473;28;20055;-79
2023/04/07 06:49:05;;;;;;;7.90;4.13;;;;;;;8.41;50.62;101117.94;5052947;28;20543;-79
2023/04/07 06:51:33;;;;;;;7.10;4.07;;;;;;;8.41;50.98;101113.34;5058121;28;20047;-79
2023/04/07 06:54:00;;;;;;;6.97;4.03;;;;;;;8.42;50.78;101111.50;5056215;28;20053;-78
2023/04/07 06:56:31;;;;;;;6.15;3.90;;;;;;;8.44;51.23;101120.41;5069699;28;20095;-79
2023/04/07 06:58:59;;;;;;;7.20;4.03;;;;;;;8.43;51.02;101126.84;5061077;28;20151;-79
2023/04/07 07:01:27;;;;;;;6.85;4.03;;;;;;;8.42;50.77;101126.00;5059651;28;20052;-78
2023/04/07 07:03:57;;;;;;;8.43;4.68;;;;;;;8.44;51.32;101129.47;5061999;28;20072;-78
2023/04/07 07:06:25;;;;;;;8.25;4.22;;;;;;;8.44;50.68;101134.91;5057768;28;20454;-78
2023/04/07 07:08:53;;;;;;;7.40;3.75;;;;;;;8.43;50.70;101132.28;5053157;28;20041;-78
2023/04/07 07:11:21;;;;;;;6.78;3.92;;;;;;;8.44;51.19;101132.19;5052456;28;20048;-78
2023/04/07 07:13:49;;;;;;;7.45;4.25;;;;;;;8.45;50.77;101138.50;5057802;28;20049;-78
2023/04/07 07:16:17;;;;;;;7.25;4.18;;;;;;;8.44;50.96;101134.91;5067402;28;20064;-78
2023/04/07 07:18:45;;;;;;;8.40;4.18;;;;;;;8.45;51.21;101139.38;5054899;28;20522;-78
2023/04/07 07:21:15;;;;;;;7.72;4.20;;;;;;;8.46;51.49;101143.00;5051165;28;20051;-78
2023/04/07 07:23:43;;;;;;;7.43;3.60;;;;;;;8.45;51.15;101138.50;5058578;28;20106;-78
2023/04/07 07:26:11;;;;;;;8.02;4.10;;;;;;;8.45;51.45;101139.38;5051280;28;20131;-79
2023/04/07 07:28:39;;;;;;;7.93;4.13;;;;;;;8.45;51.00;101144.84;5078560;28;20484;-79
2023/04/07 07:31:11;;;;;;;5.45;3.35;;;;;;;8.47;51.98;101156.53;5059593;28;20048;-78
2023/04/07 07:33:40;;;;;;;8.07;4.15;;;;;;;8.44;50.88;101151.28;5056996;28;20053;-79
2023/04/07 07:36:08;;;;;;;7.78;4.25;;;;;;;8.46;51.32;101151.19;5057831;28;20040;-79
2023/04/07 07:38:38;;;;;;;8.18;3.92;;;;;;;8.47;51.60;101161.97;5052174;28;20125;-79
2023/04/07 07:41:07;;;;;;;7.47;4.25;;;;;;;8.46;51.23;101159.34;5063772;28;20055;-79
2023/04/07 07:43:36;;;;;;;7.50;4.38;;;;;;;8.47;51.14;101163.84;5066131;28;20499;-79
2023/04/07 07:46:04;;;;;;;8.25;4.63;;;;;;;8.47;51.03;101169.28;5056369;28;20044;-79
2023/04/07 07:48:32;;;;;;;8.18;3.95;;;;;;;8.46;51.08;101165.69;5055008;28;20044;-80
2023/04/07 07:51:00;;;;;;;8.40;4.22;;;;;;;8.47;51.16;101167.44;5057087;28;20056;-80
2023/04/07 07:53:27;;;;;;;8.38;4.63;;;;;;;8.48;51.36;101171.03;5057417;28;20062;-80
2023/04/07 07:55:57;;;;;;;8.30;4.55;;;;;;;8.51;51.80;101176.25;5079137;28;20059;-80
2023/04/07 07:58:25;;;;;;;7.82;4.65;;;;;;;8.50;51.06;101174.53;5057045;28;20290;-79
2023/04/07 08:00:53;;;;;;;9.02;4.60;;;;;;;8.52;51.52;101178.00;5053988;28;20342;-80
2023/04/07 08:03:21;;;;;;;8.20;4.38;;;;;;;8.51;51.27;101181.69;5067205;28;20421;-80
2023/04/07 08:05:49;;;;;;;7.88;4.85;;;;;;;8.53;51.59;101182.47;5058314;28;20109;-79
2023/04/07 08:08:17;;;;;;;7.88;4.72;;;;;;;8.53;51.24;101183.34;5065277;28;20199;-79
2023/04/07 08:10:45;;;;;;;9.07;5.43;;;;;;;8.53;51.47;101186.06;5064539;28;20064;-79
2023/04/07 08:13:14;;;;;;;8.80;4.72;;;;;;;8.54;51.63;101185.09;5118220;22;20071;-82
2023/04/07 08:15:42;;;;;;;10.27;5.13;;;;;;;8.54;51.27;101186.94;5085314;28;20135;-81
2023/04/07 08:18:11;;;;;;;9.13;5.18;;;;;;;8.54;51.12;101184.22;5088557;28;20036;-82
2023/04/07 08:20:38;;;;;;;8.32;5.20;;;;;;;8.54;51.52;101189.66;5090286;28;20047;-82
2023/04/07 08:23:06;;;;;;;9.60;5.47;;;;;;;8.54;51.36;101195.13;5090916;28;20044;-81
2023/04/07 08:25:35;;;;;;;9.52;5.25;;;;;;;8.54;51.44;101193.28;5092035;28;20055;-82
2023/04/07 08:28:02;;;;;;;8.10;4.90;;;;;;;8.53;51.66;101196.97;5087994;28;20048;-81
2023/04/07 08:30:32;;;;;;;8.10;4.95;;;;;;;8.55;51.43;101196.88;5091905;28;20036;-82
2023/04/07 08:33:00;;;;;;;10.23;5.30;;;;;;;8.53;51.73;101199.72;5090703;28;20051;-82
2023/04/07 08:35:28;;;;;;;8.32;4.80;;;;;;;8.54;51.45;101204.19;5094893;28;20052;-81
2023/04/07 08:37:56;;;;;;;10.45;6.03;;;;;;;8.55;51.73;101207.78;5090392;28;20048;-80
2023/04/07 08:40:24;;;;;;;9.93;5.45;;;;;;;8.55;51.83;101211.38;5092430;28;20491;-81
2023/04/07 08:42:52;;;;;;;11.48;5.45;;;;;;;8.57;51.74;101214.00;5092558;28;20047;-80
2023/04/07 08:45:21;;;;;;;9.15;5.60;;;;;;;8.59;51.59;101210.16;5098373;28;20383;-79
2023/04/07 08:47:55;;;;;;;9.48;5.60;;;;;;;8.60;52.16;101211.03;5097165;28;20052;-79
2023/04/07 08:50:27;;;;;;;9.32;5.18;;;;;;;8.58;51.70;101213.91;5097634;28;20365;-80
2023/04/07 08:52:57;;;;;;;9.65;5.35;;;;;;;8.61;51.56;101223.69;5097167;28;20052;-80
2023/04/07 08:55:25;;;;;;;9.30;5.22;;;;;;;8.60;51.42;101224.66;5100882;28;20036;-80
2023/04/07 08:57:54;;;;;;;8.43;5.20;;;;;;;8.59;51.61;101229.25;5100399;28;20044;-79
2023/04/07 09:00:22;;;;;;;9.25;4.88;;;;;;;8.61;51.69;101223.69;5102234;28;20040;-79
2023/04/07 09:02:52;;;;;;;9.95;5.07;;;;;;;8.63;51.51;101228.06;5104068;28;20048;-79
2023/04/07 09:05:21;;;;;;;10.68;5.50;;;;;;;8.63;51.60;101224.47;5089188;28;20047;-81
2023/04/07 09:07:48;;;;;;;11.10;5.43;;;;;;;8.62;51.47;101229.03;5095216;28;20114;-79
2023/04/07 09:10:16;;;;;;;8.15;4.72;;;;;;;8.64;51.41;101228.94;5094661;28;20036;-81
2023/04/07 09:12:44;;;;;;;10.18;5.07;;;;;;;8.62;51.63;101220.84;5088742;28;20044;-81
2023/04/07 09:15:12;;;;;;;9.77;4.90;;;;;;;8.65;51.66;101238.88;5086531;28;20055;-81
2023/04/07 09:17:40;;;;;;;9.15;4.93;;;;;;;8.64;51.83;101240.72;5090391;28;20051;-81
2023/04/07 09:20:10;;;;;;;9.00;4.82;;;;;;;8.66;51.96;101240.63;5086199;28;20043;-79
2023/04/07 09:22:41;;;;;;;9.30;5.25;;;;;;;8.66;51.39;101244.22;5110041;28;20101;-80
2023/04/07 09:25:14;;;;;;;8.75;5.15;;;;;;;8.67;52.26;101237.75;5096525;28;20054;-80
2023/04/07 09:27:54;;;;;;;10.23;5.13;;;;;;;8.67;52.68;101248.66;5089060;28;20044;-80
2023/04/07 09:30:22;;;;;;;9.52;5.03;;;;;;;8.64;51.76;101239.84;5093325;28;20045;-81
2023/04/07 09:32:50;;;;;;;8.40;4.82;;;;;;;8.65;51.60;101245.19;5091268;28;20047;-79
2023/04/07 09:35:21;;;;;;;9.15;4.68;;;;;;;8.68;51.54;101249.53;5094837;28;20139;-80
2023/04/07 09:38:04;;;;;;;8.15;4.82;;;;;;;8.68;52.89;101242.22;5091544;28;20107;-81
2023/04/07 09:40:32;;;;;;;8.57;4.65;;;;;;;8.65;51.96;101247.06;5089581;28;20044;-79
2023/04/07 09:43:01;;;;;;;9.90;5.88;;;;;;;8.66;51.85;101243.34;5086395;28;20047;-81
2023/04/07 09:45:31;;;;;;;9.93;5.55;;;;;;;8.69;51.59;101248.56;5083465;28;20076;-80
2023/04/07 09:48:06;;;;;;;10.85;4.93;;;;;;;8.68;51.69;101246.81;5094202;28;20089;-80
2023/04/07 09:50:37;;;;;;;11.43;6.03;;;;;;;8.68;51.91;101250.41;5087566;28;20051;-80
2023/04/07 09:53:05;;;;;;;10.23;5.90;;;;;;;8.67;51.68;101254.13;5100198;28;20090;-80
2023/04/07 09:55:33;;;;;;;13.88;6.32;;;;;;;8.67;51.53;101256.00;5092065;28;20043;-79
2023/04/07 09:58:05;;;;;;;10.32;5.45;;;;;;;8.67;51.70;101259.56;5103236;28;20063;-80
2023/04/07 10:00:33;;;;;;;9.45;5.90;;;;;;;8.66;51.94;101252.41;5096916;28;20056;-80
2023/04/07 10:03:02;;;;;;;10.10;5.63;;;;;;;8.68;51.99;101263.19;5088261;28;20040;-80
2023/04/07 10:05:32;;;;;;;10.82;6.00;;;;;;;8.68;52.07;101257.72;5090644;28;20094;-80
2023/04/07 10:08:02;;;;;;;11.00;6.15;;;;;;;8.69;51.83;101256.75;5083202;28;20047;-80
2023/04/07 10:10:31;;;;;;;10.68;5.88;;;;;;;8.70;51.71;101261.22;5085297;28;20048;-81
2023/04/07 10:12:59;;;;;;;10.48;6.15;;;;;;;8.69;52.31;101257.63;5090369;28;20048;-80
2023/04/07 10:15:27;;;;;;;11.18;6.13;;;;;;;8.70;52.26;101256.63;5087339;28;20803;-81
2023/04/07 10:17:55;;;;;;;11.88;6.43;;;;;;;8.72;51.77;101261.97;5087497;28;20048;-80
2023/04/07 10:20:25;;;;;;;11.63;6.53;;;;;;;8.72;51.87;101256.53;5087922;28;20048;-81
2023/04/07 10:22:55;;;;;;;10.85;6.07;;;;;;;8.76;51.93;101254.44;5088091;28;20044;-80
2023/04/07 10:25:26;;;;;;;12.73;6.88;;;;;;;8.78;52.19;101260.66;5086782;28;20044;-80
2023/04/07 10:27:59;;;;;;;10.55;6.00;;;;;;;8.79;51.89;101271.47;5089761;28;20441;-82
2023/04/07 10:30:30;;;;;;;10.32;6.40;;;;;;;8.79;52.10;101270.59;5082906;28;20044;-81
2023/04/07 10:32:58;;;;;;;10.40;5.85;;;;;;;8.80;51.67;101278.66;5087820;28;20039;-80
2023/04/07 10:35:27;;;;;;;9.70;5.72;;;;;;;8.80;51.79;101267.75;5081764;28;20046;-81
2023/04/07 10:38:15;;;;;;;10.00;5.88;;;;;;;8.83;52.45;101273.00;5091481;28;20048;-79
2023/04/07 10:40:45;;;;;;;11.05;5.50;;;;;;;8.83;51.56;101277.59;5081370;28;20051;-79
2023/04/07 10:43:14;;;;;;;12.80;6.47;;;;;;;8.82;51.35;101276.72;5090966;28;20043;-79
2023/04/07 10:46:04;;;;;;;11.02;6.00;;;;;;;8.87;52.17;101273.63;5088672;28;20114;-80
2023/04/07 10:48:35;;;;;;;10.95;5.50;;;;;;;8.83;51.48;101275.72;5082107;28;20046;-79
2023/04/07 10:51:21;;;;;;;10.63;5.38;;;;;;;8.86;52.41;101280.06;5090973;28;20056;-79
2023/04/07 10:54:25;;;;;;;8.43;4.95;;;;;;;8.82;52.61;101282.16;5110222;28;20079;-79
2023/04/07 10:57:09;;;;;;;8.95;5.20;;;;;;;8.89;52.56;101282.56;5094081;28;20356;-78
2023/04/07 10:59:38;;;;;;;9.93;5.30;;;;;;;8.88;51.91;101284.44;5092514;28;20553;-78
2023/04/07 11:02:31;;;;;;;9.05;5.13;;;;;;;8.89;52.29;101275.25;5093234;28;20073;-78
2023/04/07 11:05:00;;;;;;;10.13;5.60;;;;;;;8.91;51.78;101286.06;5089517;28;20401;-78
2023/04/07 11:07:45;;;;;;;10.15;4.95;;;;;;;8.96;52.20;101284.72;5092823;28;20051;-78
2023/04/07 11:10:15;;;;;;;9.88;5.30;;;;;;;8.96;51.58;101289.31;5092436;28;20044;-80
2023/04/07 11:12:44;;;;;;;7.93;4.78;;;;;;;8.98;51.49;101285.50;5091598;28;20124;-79
2023/04/07 11:15:20;;;;;;;8.52;5.20;;;;;;;9.01;52.15;101290.72;5083451;28;20036;-79
2023/04/07 11:18:06;;;;;;;8.45;4.70;;;;;;;9.01;52.27;101292.56;5090625;28;20080;-79
2023/04/07 11:20:49;;;;;;;8.98;5.10;;;;;;;9.02;51.58;101297.03;5082129;28;20097;-81
2023/04/07 11:23:18;;;;;;;8.07;4.65;;;;;;;8.99;51.46;101298.16;5089763;28;20070;-80
2023/04/07 11:25:47;;;;;;;8.27;4.60;;;;;;;9.03;51.15;101299.66;5096824;28;20039;-79
2023/04/07 11:28:17;;;;;;;8.40;5.07;;;;;;;9.05;51.36;101294.97;5106133;28;20050;-78
2023/04/07 11:30:47;;;;;;;9.43;5.43;;;;;;;9.06;51.70;101296.72;5089958;28;20103;-79
2023/04/07 11:33:16;;;;;;;7.75;4.93;;;;;;;9.05;51.44;101294.97;5091917;28;20079;-79
2023/04/07 11:35:49;;;;;;;8.52;5.32;;;;;;;9.10;51.39;101305.53;5083573;28;20047;-78
2023/04/07 11:38:17;;;;;;;8.85;4.90;;;;;;;9.07;51.87;101301.19;5092280;28;20499;-79
2023/04/07 11:40:46;;;;;;;7.38;4.55;;;;;;;9.10;51.62;101300.94;5092789;28;20382;-79
2023/04/07 11:43:20;;;;;;;7.75;4.78;;;;;;;9.13;52.07;101301.72;5090565;28;20446;-79
2023/04/07 11:46:03;;;;;;;7.18;4.35;;;;;;;9.14;52.23;101303.47;5093679;28;20117;-79